Buffalo, NY

7:36 PM EDT on July 07, 2015 (GMT -0400)
Buffalo Niagara International | | Change Station
CLOSE
Current Station
Airport
Location: Buffalo,
Elevation: 702 ft
Nearby Weather Stations

Elev 702 ft 42.94 °N, 78.74 °W | Updated 42 minutes ago

Light Rain
Light Rain
74 °F
Feels Like 74 °F
N
13
Wind Variable Wind from SW
Gusts 21 mph

Today
High -- | Low -- °F
--% Chance of Precip.
Yesterday
High -- | Low -- °F
Precip. -- in
5:43 AM 8:56 PM
Waning Gibbous, 60% visible
Pressure 29.86 in
Visibility 9.0 miles
Clouds Scattered Clouds 3600 ft
Scattered Clouds 9500 ft
Mostly Cloudy 16000 ft
Overcast 26000 ft
Dew Point 67 °F
Humidity 79%
Rainfall 0.12 in
Snow Depth Not available.
UV 0 out of 12
Pollen 3.00 out of 12
Air Quality Not available.
Flu Activity Not available.
METAR KBUF 072254Z 22011G18KT 9SM -RA SCT036 SCT095 BKN160 OVC260 23/19 A2986 RMK AO2 RAB2155E03B52 SLP109 P0001 T02330194 $

More Conditions Fewer Conditions

Pressure 29.86 in
Visibility 9.0 miles
Clouds Scattered Clouds 3600 ft
Scattered Clouds 9500 ft
Mostly Cloudy 16000 ft
Overcast 26000 ft
Dew Point 67 °F
Humidity 79%
Rainfall 0.12 in
Snow Depth Not available.
UV 0 out of 12
Pollen 3.00 out of 12
Air Quality Not available.
Flu Activity Not available.
METAR KBUF 072254Z 22011G18KT 9SM -RA SCT036 SCT095 BKN160 OVC260 23/19 A2986 RMK AO2 RAB2155E03B52 SLP109 P0001 T02330194 $

More Conditions Fewer Conditions

10-Day Weather Forecast

×

Almanac

Astronomy

Jul. 07, 2015 Rise Set
Actual Time
Civil Twilight
Nautical Twilight
Astronomical Twilight
Moon
Length of Visible Light
Length of Day
Tomorrow will be .
, % of the Moon is Illuminated

Today's Extremes

State Highs State Lows

Community

WunderPhotos

Upload Photos

1,835,961 photos uploaded!

WunderBlogs® & News

Nearby

Air Quality

  Air Quality AQ Index Pollutant
Not available.

Snow Depth

Station Depth Elevation

Earthquake Activity

City Distance Mag. Time & Date
Minimum magnitude displayed is 2.5.

Coastal Water Temperatures

Place Temperature

Stations

Nearby Weather Stations

Station Location Temp. Windchill Dew Point Humidity Wind Precip. Elev Updated Type